Time;durP1;ratioP1;P1;durP2;ratioP2;P2;SDS_P1;SDS_P2;PMS_P1;PMS_P2;Temp;Humidity;BMP_temperature;BMP_pressure;BME280_temperature;BME280_humidity;BME280_pressure;Samples;Min_cycle;Max_cycle;Signal;HPM_P1;HPM_P2
2022/02/19 00:02:25;;;;;;;10.52;1.10;;;10.20;63.50;;;;;;6204001;28;20054;-80
2022/02/19 00:05:27;;;;;;;6.63;1.15;;;10.20;63.80;;;;;;6203413;28;20050;-79
2022/02/19 00:08:29;;;;;;;5.40;0.80;;;10.10;63.60;;;;;;6203657;28;20200;-79
2022/02/19 00:11:31;;;;;;;11.45;1.30;;;10.10;63.70;;;;;;6203808;28;20042;-80
2022/02/19 00:14:32;;;;;;;8.25;1.02;;;10.10;63.50;;;;;;6203447;28;20042;-80
2022/02/19 00:17:36;;;;;;;8.15;1.40;;;10.10;63.80;;;;;;6202657;28;20508;-80
2022/02/19 00:20:37;;;;;;;7.18;1.20;;;10.10;63.30;;;;;;6203632;28;20137;-80
2022/02/19 00:23:40;;;;;;;12.15;1.48;;;10.10;62.80;;;;;;6203616;28;20052;-80
2022/02/19 00:26:42;;;;;;;5.65;1.27;;;10.10;62.80;;;;;;6202274;28;20137;-80
2022/02/19 00:29:44;;;;;;;20.08;1.65;;;10.00;62.90;;;;;;6202446;28;20529;-79
2022/02/19 00:32:48;;;;;;;11.82;1.63;;;10.00;63.00;;;;;;6202749;28;20054;-79
2022/02/19 00:35:50;;;;;;;13.68;1.50;;;10.00;63.20;;;;;;6202352;28;20046;-79
2022/02/19 00:38:52;;;;;;;14.27;3.67;;;10.00;63.10;;;;;;6202284;28;20419;-79
2022/02/19 00:41:54;;;;;;;7.40;2.42;;;10.00;62.80;;;;;;6201686;28;20526;-79
2022/02/19 00:44:56;;;;;;;14.90;1.95;;;9.90;62.70;;;;;;6203053;28;20054;-79
2022/02/19 00:47:59;;;;;;;10.90;1.55;;;9.90;62.50;;;;;;6202207;28;20047;-80
2022/02/19 00:51:01;;;;;;;4.55;1.02;;;9.80;61.70;;;;;;6202681;28;20047;-79
2022/02/19 00:54:03;;;;;;;4.88;1.55;;;9.80;61.80;;;;;;6202271;28;20052;-79
2022/02/19 00:57:05;;;;;;;14.60;1.90;;;9.80;62.00;;;;;;6202090;28;20415;-79
2022/02/19 01:00:08;;;;;;;13.38;1.33;;;9.80;61.60;;;;;;6203305;28;20062;-79
2022/02/19 01:03:11;;;;;;;4.40;1.13;;;9.70;61.30;;;;;;6202270;28;20089;-79
2022/02/19 01:06:13;;;;;;;13.27;1.83;;;9.80;60.80;;;;;;6202152;28;20180;-79
2022/02/19 01:09:15;;;;;;;9.07;1.77;;;9.70;60.80;;;;;;6202092;28;20405;-79
2022/02/19 01:12:16;;;;;;;5.95;1.40;;;9.70;60.60;;;;;;6201040;28;20049;-79
2022/02/19 01:15:18;;;;;;;12.35;1.35;;;9.60;59.90;;;;;;6201570;28;20108;-79
2022/02/19 01:18:21;;;;;;;12.63;1.33;;;9.60;59.70;;;;;;6201540;28;20057;-79
2022/02/19 01:21:23;;;;;;;5.70;0.75;;;9.60;59.40;;;;;;6202468;28;20046;-79
2022/02/19 01:24:25;;;;;;;8.40;1.05;;;9.50;59.30;;;;;;6202018;28;20061;-79
2022/02/19 01:27:27;;;;;;;7.18;1.85;;;9.50;58.80;;;;;;6202279;28;20050;-79
2022/02/19 01:30:28;;;;;;;8.70;1.65;;;9.40;58.10;;;;;;6201802;28;20070;-79
2022/02/19 01:33:32;;;;;;;10.15;1.27;;;9.40;58.50;;;;;;6201563;28;20050;-79
2022/02/19 01:36:34;;;;;;;8.65;1.65;;;9.30;58.50;;;;;;6184023;28;20086;-79
2022/02/19 01:39:35;;;;;;;7.25;1.52;;;9.30;58.50;;;;;;6192468;23;20051;-79
2022/02/19 01:42:39;;;;;;;9.73;1.98;;;9.20;58.70;;;;;;6178414;28;20138;-80
2022/02/19 01:45:40;;;;;;;7.93;1.42;;;9.20;58.80;;;;;;6177772;28;20389;-80
2022/02/19 01:48:44;;;;;;;9.30;0.90;;;9.10;58.60;;;;;;6178501;28;20047;-80
2022/02/19 01:51:46;;;;;;;12.00;1.60;;;9.10;59.10;;;;;;6177465;28;20174;-79
2022/02/19 01:54:48;;;;;;;4.30;0.70;;;9.00;59.20;;;;;;6178174;28;20050;-79
2022/02/19 01:57:50;;;;;;;11.57;1.35;;;9.00;59.40;;;;;;6179893;28;20049;-79
2022/02/19 02:00:52;;;;;;;8.75;1.23;;;8.90;59.20;;;;;;6180311;28;20049;-79
2022/02/19 02:03:55;;;;;;;16.58;1.88;;;9.00;59.60;;;;;;6181319;28;20726;-80
2022/02/19 02:06:57;;;;;;;5.40;1.40;;;8.90;59.60;;;;;;6181254;28;20042;-80
2022/02/19 02:09:59;;;;;;;7.43;1.58;;;9.00;60.00;;;;;;6182571;28;20042;-80
2022/02/19 02:13:04;;;;;;;15.32;2.22;;;9.00;60.10;;;;;;6185394;28;20054;-80
2022/02/19 02:16:06;;;;;;;12.52;2.20;;;8.90;60.00;;;;;;6180863;28;20057;-80
2022/02/19 02:19:10;;;;;;;5.22;0.90;;;9.00;59.90;;;;;;6177035;28;20124;-80
2022/02/19 02:22:15;;;;;;;9.30;1.25;;;8.90;59.80;;;;;;6177970;28;20127;-79
2022/02/19 02:25:20;;;;;;;8.65;2.85;;;8.90;59.90;;;;;;6177810;28;20114;-79
2022/02/19 02:28:22;;;;;;;8.75;1.23;;;8.90;59.90;;;;;;6177905;28;20500;-79
2022/02/19 02:31:24;;;;;;;6.88;1.55;;;8.90;60.10;;;;;;6182855;28;20066;-80
2022/02/19 02:34:26;;;;;;;11.15;2.33;;;8.80;60.30;;;;;;6181531;28;20076;-80
2022/02/19 02:37:29;;;;;;;6.03;0.98;;;8.80;60.30;;;;;;6181599;28;20047;-80
2022/02/19 02:40:32;;;;;;;12.80;1.83;;;8.70;60.10;;;;;;6185928;28;20145;-80
2022/02/19 02:43:34;;;;;;;13.50;1.80;;;8.70;60.60;;;;;;6181166;28;20063;-80
2022/02/19 02:46:36;;;;;;;9.80;1.30;;;8.70;60.70;;;;;;6181684;28;20066;-81
2022/02/19 02:49:38;;;;;;;8.50;2.45;;;8.70;60.90;;;;;;6187594;28;20047;-80
2022/02/19 02:52:41;;;;;;;5.20;0.90;;;8.60;60.80;;;;;;6193539;28;20043;-80
2022/02/19 02:55:43;;;;;;;9.95;1.10;;;8.60;60.80;;;;;;6189628;28;20524;-80
2022/02/19 02:58:45;;;;;;;6.07;1.67;;;8.60;61.00;;;;;;6193522;28;20093;-80
2022/02/19 03:01:46;;;;;;;10.50;1.77;;;8.50;61.80;;;;;;6193959;28;20046;-79
2022/02/19 03:04:48;;;;;;;9.65;1.10;;;8.50;61.30;;;;;;6193830;28;20082;-80
2022/02/19 03:07:52;;;;;;;12.00;1.25;;;8.60;61.50;;;;;;6196139;28;20066;-78
2022/02/19 03:10:53;;;;;;;13.00;1.70;;;8.40;61.50;;;;;;6193100;28;20062;-79
2022/02/19 03:13:55;;;;;;;8.65;1.38;;;8.40;61.70;;;;;;6197873;28;20106;-80
2022/02/19 03:16:57;;;;;;;10.38;1.00;;;8.30;62.20;;;;;;6194466;28;20070;-80
2022/02/19 03:19:59;;;;;;;8.07;2.33;;;8.20;62.40;;;;;;6194493;28;20484;-78
2022/02/19 03:23:02;;;;;;;6.10;1.00;;;8.20;62.40;;;;;;6193001;28;20070;-78
2022/02/19 03:26:07;;;;;;;12.68;2.03;;;8.20;62.60;;;;;;6195276;28;20113;-80
2022/02/19 03:29:09;;;;;;;9.77;1.05;;;8.10;63.10;;;;;;6195116;28;20067;-79
2022/02/19 03:32:11;;;;;;;7.68;1.08;;;8.10;63.30;;;;;;6185384;28;20419;-80
2022/02/19 03:35:12;;;;;;;17.77;2.80;;;8.10;63.70;;;;;;6182669;28;20066;-78
2022/02/19 03:38:16;;;;;;;10.73;1.30;;;8.10;64.00;;;;;;6185426;28;20056;-79
2022/02/19 03:41:18;;;;;;;12.10;1.33;;;8.10;64.10;;;;;;6185735;28;20066;-80
2022/02/19 03:44:19;;;;;;;17.55;1.35;;;8.00;64.00;;;;;;6185019;28;20142;-80
2022/02/19 03:47:21;;;;;;;2.15;1.00;;;8.00;64.40;;;;;;6185030;28;20118;-79
2022/02/19 03:50:23;;;;;;;3.50;1.00;;;8.00;64.00;;;;;;6184422;28;20078;-79
2022/02/19 03:53:26;;;;;;;6.95;0.77;;;7.90;64.30;;;;;;6184488;28;20074;-79
2022/02/19 03:56:28;;;;;;;7.18;1.30;;;7.80;64.60;;;;;;6185815;28;20055;-79
2022/02/19 03:59:30;;;;;;;11.57;1.33;;;7.80;65.00;;;;;;6185655;28;20397;-79
2022/02/19 04:02:32;;;;;;;3.78;1.35;;;7.80;64.90;;;;;;6184252;28;20197;-79
2022/02/19 04:05:33;;;;;;;9.30;1.92;;;7.70;64.90;;;;;;6184570;28;20051;-80
2022/02/19 04:08:37;;;;;;;11.55;1.38;;;7.60;65.10;;;;;;6186198;28;20060;-81
2022/02/19 04:11:38;;;;;;;23.55;3.53;;;7.60;65.10;;;;;;6184788;28;20053;-79
2022/02/19 04:14:40;;;;;;;6.70;0.90;;;7.60;64.70;;;;;;6184167;28;20051;-81
2022/02/19 04:17:42;;;;;;;11.07;1.88;;;7.60;64.90;;;;;;6185353;28;20425;-80
2022/02/19 04:20:44;;;;;;;19.95;2.13;;;7.80;64.80;;;;;;6186128;28;20085;-81
2022/02/19 04:23:47;;;;;;;8.38;1.48;;;7.80;64.80;;;;;;6185597;28;20106;-81
2022/02/19 04:26:49;;;;;;;8.30;1.35;;;7.80;64.70;;;;;;6186126;28;20519;-80
2022/02/19 04:29:50;;;;;;;8.57;1.20;;;7.70;64.60;;;;;;6184310;28;20053;-81
2022/02/19 04:32:56;;;;;;;6.13;1.15;;;7.70;64.60;;;;;;6185564;28;20047;-80
2022/02/19 04:35:58;;;;;;;8.63;1.27;;;7.60;64.60;;;;;;6185216;28;20046;-81
2022/02/19 04:39:01;;;;;;;5.75;1.00;;;7.60;64.50;;;;;;6188941;28;20130;-78
2022/02/19 04:42:03;;;;;;;13.55;1.83;;;7.50;64.70;;;;;;6188354;28;20042;-80
2022/02/19 04:45:06;;;;;;;11.32;2.15;;;7.50;64.80;;;;;;6181078;28;20056;-79
2022/02/19 04:48:07;;;;;;;22.75;2.25;;;7.40;65.10;;;;;;6187835;28;20061;-79
2022/02/19 04:51:09;;;;;;;11.95;1.80;;;7.40;65.50;;;;;;6188600;28;20419;-79
2022/02/19 04:54:12;;;;;;;12.40;1.75;;;7.40;65.70;;;;;;6189944;28;20046;-79
2022/02/19 04:57:14;;;;;;;3.45;1.33;;;7.40;66.00;;;;;;6187955;28;20495;-79
2022/02/19 05:00:18;;;;;;;10.50;2.08;;;7.30;65.90;;;;;;6191689;28;20046;-79
2022/02/19 05:03:20;;;;;;;4.47;0.85;;;7.30;66.00;;;;;;6192573;28;20132;-79
2022/02/19 05:06:22;;;;;;;9.93;0.95;;;7.20;66.10;;;;;;6192891;28;20053;-80
2022/02/19 05:09:25;;;;;;;14.30;1.58;;;7.20;66.20;;;;;;6193367;28;20133;-79
2022/02/19 05:12:27;;;;;;;11.73;1.48;;;7.10;66.30;;;;;;6192091;28;20077;-79
2022/02/19 05:15:29;;;;;;;7.90;2.15;;;7.10;66.30;;;;;;6192376;28;20066;-79
2022/02/19 05:18:31;;;;;;;8.60;1.63;;;7.10;66.40;;;;;;6194054;28;20121;-80
2022/02/19 05:21:33;;;;;;;11.27;1.40;;;7.10;66.60;;;;;;6192870;28;20086;-79
2022/02/19 05:24:36;;;;;;;5.47;1.10;;;7.00;66.60;;;;;;6191415;28;20141;-80
2022/02/19 05:27:38;;;;;;;4.30;0.98;;;7.00;66.80;;;;;;6195698;28;20080;-78
2022/02/19 05:30:40;;;;;;;10.35;1.35;;;7.00;66.90;;;;;;6190824;28;20568;-79
2022/02/19 05:33:42;;;;;;;9.20;0.90;;;6.90;66.90;;;;;;6192462;28;20073;-78
2022/02/19 05:36:44;;;;;;;9.90;2.17;;;6.90;67.00;;;;;;6194522;28;20077;-79
2022/02/19 05:39:47;;;;;;;11.18;2.17;;;6.80;66.90;;;;;;6193049;28;20057;-80
2022/02/19 05:42:48;;;;;;;8.60;1.75;;;6.80;67.00;;;;;;6195172;28;20085;-78
2022/02/19 05:45:50;;;;;;;9.65;1.40;;;6.80;67.10;;;;;;6179991;28;20133;-78
2022/02/19 05:48:52;;;;;;;15.95;1.35;;;6.80;67.20;;;;;;6180781;28;20576;-78
2022/02/19 05:51:54;;;;;;;11.82;1.52;;;6.90;67.60;;;;;;6181786;28;20580;-79
2022/02/19 05:54:57;;;;;;;13.02;2.58;;;6.90;67.00;;;;;;6182814;28;20047;-79
2022/02/19 05:57:59;;;;;;;10.57;1.23;;;6.90;66.90;;;;;;6180440;28;20042;-78
2022/02/19 06:01:01;;;;;;;13.38;1.35;;;6.90;66.90;;;;;;6175125;28;20050;-79
2022/02/19 06:04:03;;;;;;;7.07;1.13;;;6.90;67.00;;;;;;6174120;28;20082;-78
2022/02/19 06:07:05;;;;;;;4.70;1.08;;;6.80;67.10;;;;;;6174161;28;20058;-78
2022/02/19 06:10:12;;;;;;;6.97;1.40;;;6.80;67.00;;;;;;6177044;28;20046;-77
2022/02/19 06:13:13;;;;;;;8.30;0.95;;;6.80;67.20;;;;;;6176882;28;20047;-76
2022/02/19 06:16:15;;;;;;;6.03;1.38;;;6.80;67.30;;;;;;6174047;28;20116;-76
2022/02/19 06:19:17;;;;;;;11.45;1.20;;;6.70;68.20;;;;;;6174144;28;20050;-77
2022/02/19 06:22:19;;;;;;;3.17;0.73;;;6.60;67.70;;;;;;6175870;28;20113;-77
2022/02/19 06:25:22;;;;;;;9.60;0.93;;;6.60;68.00;;;;;;6175417;28;20158;-78
2022/02/19 06:28:24;;;;;;;9.43;1.40;;;6.60;68.20;;;;;;6179304;28;20051;-78
2022/02/19 06:31:26;;;;;;;4.80;0.93;;;6.50;68.40;;;;;;6179051;28;20061;-77
2022/02/19 06:34:28;;;;;;;11.60;2.33;;;6.50;68.50;;;;;;6178846;28;20046;-78
2022/02/19 06:37:29;;;;;;;8.02;1.83;;;6.50;68.60;;;;;;6178633;28;20058;-78
2022/02/19 06:40:33;;;;;;;10.30;2.25;;;6.50;68.60;;;;;;6178932;28;20046;-79
2022/02/19 06:43:35;;;;;;;8.35;1.02;;;6.50;68.70;;;;;;6178516;28;20053;-78
2022/02/19 06:46:37;;;;;;;10.80;1.20;;;6.60;68.80;;;;;;6178303;28;20058;-79
2022/02/19 06:49:39;;;;;;;11.68;1.50;;;6.60;68.90;;;;;;6178658;28;20057;-78
2022/02/19 06:52:40;;;;;;;8.45;2.30;;;6.60;69.00;;;;;;6179462;28;20061;-78
2022/02/19 06:55:43;;;;;;;6.07;1.80;;;6.60;68.90;;;;;;6178214;28;20043;-78
2022/02/19 06:58:45;;;;;;;10.05;2.08;;;6.60;68.90;;;;;;6178935;28;20050;-78
2022/02/19 07:01:47;;;;;;;14.70;1.10;;;6.60;69.20;;;;;;6178127;28;20119;-78
2022/02/19 07:04:49;;;;;;;10.32;1.48;;;6.60;69.40;;;;;;6178601;28;20520;-78
2022/02/19 07:07:51;;;;;;;8.68;1.38;;;6.70;69.30;;;;;;6177837;28;20042;-79
2022/02/19 07:10:54;;;;;;;7.30;1.48;;;6.70;69.60;;;;;;6177023;28;20047;-78
2022/02/19 07:13:55;;;;;;;12.25;2.50;;;6.70;69.60;;;;;;6177677;28;20130;-77
2022/02/19 07:17:04;;;;;;;8.15;1.20;;;6.70;69.60;;;;;;6177863;28;20051;-77
2022/02/19 07:20:07;;;;;;;8.65;1.08;;;6.70;69.40;;;;;;6177019;28;20047;-77
2022/02/19 07:23:09;;;;;;;7.45;1.55;;;6.70;69.40;;;;;;6177401;28;20090;-78
2022/02/19 07:26:12;;;;;;;12.82;1.75;;;6.70;69.50;;;;;;6178316;28;20043;-78
2022/02/19 07:29:14;;;;;;;12.55;2.22;;;6.80;69.60;;;;;;6180471;28;20521;-78
2022/02/19 07:32:16;;;;;;;15.15;2.17;;;6.80;69.50;;;;;;6129766;28;20051;-79
2022/02/19 07:35:19;;;;;;;9.02;1.15;;;6.90;69.60;;;;;;6177499;28;20059;-79
2022/02/19 07:38:21;;;;;;;7.35;1.17;;;6.90;69.60;;;;;;6173972;28;20074;-77
2022/02/19 07:41:24;;;;;;;3.97;0.88;;;7.00;69.40;;;;;;6212189;22;20082;-81
2022/02/19 07:44:26;;;;;;;6.78;0.95;;;7.20;69.10;;;;;;6171622;28;20073;-80
2022/02/19 07:47:30;;;;;;;15.55;2.78;;;7.40;68.30;;;;;;6204354;28;20051;-81
2022/02/19 08:00:31;;;;;;;20.10;2.08;;;8.60;64.40;;;;;;6180317;28;20500;-81
2022/02/19 08:03:33;;;;;;;12.70;2.05;;;8.80;64.50;;;;;;6180015;28;20126;-80
2022/02/19 08:06:35;;;;;;;14.63;1.65;;;8.90;63.70;;;;;;6177842;28;20078;-80
2022/02/19 08:09:37;;;;;;;16.15;1.92;;;9.20;63.30;;;;;;6194936;28;20046;-80
2022/02/19 08:12:40;;;;;;;11.95;2.00;;;9.40;62.40;;;;;;6204630;28;20050;-81
2022/02/19 08:15:42;;;;;;;10.02;1.20;;;9.70;61.60;;;;;;6203851;28;20050;-80
2022/02/19 08:18:47;;;;;;;9.52;1.50;;;9.90;61.40;;;;;;6195405;28;20125;-80
2022/02/19 08:21:50;;;;;;;8.20;1.02;;;10.20;60.40;;;;;;6179436;28;20114;-81
2022/02/19 08:24:51;;;;;;;3.92;0.82;;;10.40;59.60;;;;;;6183016;28;20484;-82
2022/02/19 08:27:55;;;;;;;5.07;0.90;;;10.50;59.00;;;;;;6191610;28;20050;-81
2022/02/19 08:30:57;;;;;;;9.75;1.25;;;10.90;58.10;;;;;;6203159;28;20122;-81
2022/02/19 08:33:59;;;;;;;6.20;1.23;;;11.10;57.80;;;;;;6203114;28;20049;-79
2022/02/19 08:37:00;;;;;;;5.30;0.93;;;11.40;56.70;;;;;;6200391;28;20125;-80
2022/02/19 08:40:03;;;;;;;2.55;0.80;;;11.60;55.50;;;;;;6194817;28;20078;-81
2022/02/19 08:43:06;;;;;;;9.90;1.27;;;11.80;55.60;;;;;;6202091;28;20058;-81
2022/02/19 08:46:08;;;;;;;4.28;1.30;;;11.90;54.60;;;;;;6202437;28;20510;-80
2022/02/19 08:49:10;;;;;;;5.00;1.25;;;12.00;54.50;;;;;;6204224;28;20057;-81
2022/02/19 08:52:12;;;;;;;5.40;1.33;;;12.10;54.20;;;;;;6207940;28;20056;-80
2022/02/19 08:55:15;;;;;;;7.45;1.20;;;12.10;53.40;;;;;;6190539;28;20117;-80
2022/02/19 08:58:18;;;;;;;9.55;1.13;;;12.30;53.50;;;;;;6178445;28;20065;-82
2022/02/19 09:01:20;;;;;;;10.57;1.00;;;12.70;52.40;;;;;;6178891;28;20129;-81
2022/02/19 09:04:22;;;;;;;8.23;1.02;;;13.30;51.70;;;;;;6177543;28;20046;-81
2022/02/19 09:07:24;;;;;;;6.28;1.38;;;14.10;49.20;;;;;;6184114;28;20046;-81
2022/02/19 09:10:25;;;;;;;7.38;0.98;;;14.70;47.30;;;;;;6193644;28;20526;-81
2022/02/19 09:13:28;;;;;;;11.85;1.88;;;14.90;45.70;;;;;;6202543;28;20048;-82
2022/02/19 09:16:32;;;;;;;4.15;0.90;;;14.60;46.20;;;;;;6203469;28;20046;-81
2022/02/19 09:19:34;;;;;;;12.65;1.30;;;14.20;46.90;;;;;;6202715;28;20666;-82
2022/02/19 09:22:35;;;;;;;11.32;1.42;;;13.90;47.70;;;;;;6204936;28;20113;-82
2022/02/19 09:25:37;;;;;;;8.75;1.20;;;14.20;47.80;;;;;;6208645;28;20054;-82
2022/02/19 09:28:40;;;;;;;4.80;1.45;;;14.70;49.20;;;;;;6208553;28;20046;-83
2022/02/19 09:31:43;;;;;;;14.15;1.63;;;14.80;46.60;;;;;;6207461;28;20054;-81
2022/02/19 09:34:44;;;;;;;8.77;1.20;;;14.80;46.40;;;;;;6204955;28;20101;-82
2022/02/19 09:37:48;;;;;;;9.63;1.23;;;14.70;45.10;;;;;;6198084;28;20049;-81
2022/02/19 09:40:50;;;;;;;5.60;1.08;;;14.40;46.00;;;;;;6179104;28;20129;-81
2022/02/19 09:43:53;;;;;;;7.80;0.73;;;14.30;46.50;;;;;;6180910;28;20042;-83
2022/02/19 09:46:56;;;;;;;8.32;1.38;;;14.30;46.50;;;;;;6195896;28;20058;-82
2022/02/19 09:49:59;;;;;;;7.28;1.20;;;14.20;46.50;;;;;;6202709;28;20667;-83
2022/02/19 09:53:03;;;;;;;9.57;0.93;;;14.10;46.90;;;;;;6203797;28;20488;-83
2022/02/19 09:56:06;;;;;;;3.97;0.80;;;14.20;47.20;;;;;;6190801;28;20127;-83
2022/02/19 09:59:12;;;;;;;4.47;0.88;;;14.10;46.90;;;;;;6178481;28;20125;-83
2022/02/19 10:02:13;;;;;;;8.25;1.13;;;13.80;46.60;;;;;;6179219;28;20058;-83
2022/02/19 10:05:18;;;;;;;9.80;1.88;;;13.40;48.10;;;;;;6179035;28;20057;-82
2022/02/19 10:08:20;;;;;;;6.78;1.13;;;13.20;47.60;;;;;;6186982;28;20042;-83
2022/02/19 10:11:22;;;;;;;9.45;2.78;;;13.30;47.70;;;;;;6201233;28;20121;-83
2022/02/19 10:14:29;;;;;;;9.55;1.58;;;13.90;47.00;;;;;;6204033;28;20053;-82
2022/02/19 10:17:30;;;;;;;3.80;0.88;;;14.30;45.80;;;;;;6203561;28;20488;-83
2022/02/19 10:20:33;;;;;;;5.63;0.77;;;14.50;45.40;;;;;;6204236;28;20054;-83
2022/02/19 10:23:34;;;;;;;7.20;1.80;;;14.40;45.00;;;;;;6201921;28;20488;-83
2022/02/19 10:26:36;;;;;;;5.57;0.93;;;14.30;45.10;;;;;;6201237;28;20050;-82
2022/02/19 10:29:50;;;;;;;6.70;0.95;;;14.30;45.50;;;;;;6201773;28;20699;-81
2022/02/19 10:32:54;;;;;;;9.48;1.25;;;14.30;45.40;;;;;;6202965;28;20054;-81
2022/02/19 10:35:56;;;;;;;8.57;1.40;;;14.10;45.80;;;;;;6202597;28;20053;-84
2022/02/19 10:39:00;;;;;;;2.17;0.80;;;14.30;46.60;;;;;;6188539;28;20439;-81
2022/02/19 10:42:04;;;;;;;5.75;0.85;;;14.60;45.20;;;;;;6200179;28;20089;-81
2022/02/19 10:45:10;;;;;;;4.50;1.10;;;15.00;44.50;;;;;;6201662;28;20042;-82
2022/02/19 10:48:15;;;;;;;3.88;0.70;;;15.50;43.10;;;;;;6201625;28;20050;-81
2022/02/19 10:51:18;;;;;;;9.27;1.25;;;16.00;41.60;;;;;;6200414;28;20415;-82
2022/02/19 10:54:22;;;;;;;5.80;1.20;;;16.20;40.80;;;;;;6201299;28;20046;-81
2022/02/19 10:57:24;;;;;;;8.20;1.52;;;16.10;40.50;;;;;;6187620;28;20067;-82
2022/02/19 11:00:28;;;;;;;10.63;2.47;;;15.70;41.80;;;;;;6177328;28;20051;-81
2022/02/19 11:03:30;;;;;;;14.38;1.48;;;15.20;43.10;;;;;;6177328;28;20505;-81
2022/02/19 11:06:32;;;;;;;17.58;2.25;;;14.90;44.00;;;;;;6177613;28;20466;-81
2022/02/19 11:09:35;;;;;;;8.88;1.35;;;14.50;45.50;;;;;;6196931;28;20130;-80
2022/02/19 11:12:37;;;;;;;7.93;1.10;;;14.00;46.60;;;;;;6205773;28;20046;-81
2022/02/19 11:15:42;;;;;;;11.30;1.40;;;13.70;48.10;;;;;;6206410;28;20046;-83
2022/02/19 11:18:45;;;;;;;9.40;1.23;;;13.60;48.00;;;;;;6207011;28;20176;-81
2022/02/19 11:21:47;;;;;;;11.82;1.40;;;13.50;47.70;;;;;;6206448;28;20072;-81
2022/02/19 11:24:51;;;;;;;7.75;1.20;;;13.50;46.90;;;;;;6207521;28;20054;-82
2022/02/19 11:27:57;;;;;;;6.78;1.33;;;13.40;47.40;;;;;;6206264;28;20415;-81
2022/02/19 11:31:00;;;;;;;5.07;1.23;;;13.30;48.00;;;;;;6206474;28;20271;-82
2022/02/19 11:34:05;;;;;;;10.43;1.20;;;13.20;48.00;;;;;;6206294;28;20181;-80
2022/02/19 11:37:15;;;;;;;9.40;1.00;;;13.10;48.40;;;;;;6194122;28;20046;-81
2022/02/19 11:40:19;;;;;;;4.35;0.65;;;13.20;48.80;;;;;;6200088;28;20054;-81
2022/02/19 11:43:38;;;;;;;7.93;1.75;;;13.20;47.90;;;;;;6205692;28;20043;-80
2022/02/19 11:46:41;;;;;;;8.38;1.13;;;13.00;47.80;;;;;;6207200;28;20574;-81
2022/02/19 11:49:43;;;;;;;6.13;0.90;;;12.80;47.90;;;;;;6202360;28;20521;-81
2022/02/19 11:52:46;;;;;;;6.70;1.00;;;12.40;48.20;;;;;;6207283;28;20054;-82
2022/02/19 11:55:48;;;;;;;6.15;1.73;;;12.20;48.80;;;;;;6207372;28;20053;-83
2022/02/19 11:58:51;;;;;;;6.88;1.02;;;12.10;49.60;;;;;;6189953;28;20122;-80
2022/02/19 12:02:14;;;;;;;5.75;1.50;;;12.10;49.90;;;;;;6183664;28;20408;-81
2022/02/19 12:05:17;;;;;;;10.02;1.27;;;12.50;49.60;;;;;;6183509;28;20409;-81
2022/02/19 12:08:20;;;;;;;3.67;0.65;;;13.10;48.50;;;;;;6191574;28;20054;-81
2022/02/19 12:11:24;;;;;;;8.13;0.75;;;13.90;46.70;;;;;;6206758;28;20053;-83
2022/02/19 12:15:01;;;;;;;5.57;0.70;;;14.60;43.10;;;;;;6208100;28;20047;-81
2022/02/19 12:18:04;;;;;;;5.88;1.23;;;15.10;40.30;;;;;;6207243;28;20054;-83
2022/02/19 12:21:30;;;;;;;4.32;1.15;;;15.40;40.70;;;;;;6208185;28;20137;-83
2022/02/19 12:24:49;;;;;;;9.90;0.98;;;15.50;41.00;;;;;;6206299;28;20053;-83
2022/02/19 12:28:17;;;;;;;8.90;1.75;;;15.90;40.70;;;;;;6207256;28;20412;-84
2022/02/19 12:31:21;;;;;;;7.50;0.95;;;15.90;42.20;;;;;;6207707;28;20077;-83
2022/02/19 12:34:25;;;;;;;10.10;2.60;;;16.30;41.20;;;;;;6207560;28;20046;-83
2022/02/19 12:37:33;;;;;;;6.38;1.50;;;17.00;40.80;;;;;;6204465;28;20054;-83
2022/02/19 12:40:35;;;;;;;3.28;0.90;;;17.60;38.20;;;;;;6198988;28;20122;-83
2022/02/19 12:43:38;;;;;;;6.45;0.57;;;18.00;36.50;;;;;;6208144;28;20464;-83
2022/02/19 12:46:41;;;;;;;4.97;0.80;;;18.20;33.70;;;;;;6207917;28;20102;-83
2022/02/19 12:49:44;;;;;;;4.10;0.68;;;18.00;31.60;;;;;;6206507;28;20050;-84
2022/02/19 12:52:50;;;;;;;3.20;1.25;;;17.60;31.30;;;;;;6209636;28;20057;-82
2022/02/19 12:55:55;;;;;;;7.72;1.00;;;17.20;33.40;;;;;;6204672;28;20057;-82
2022/02/19 12:58:57;;;;;;;6.40;0.63;;;17.00;34.30;;;;;;6198057;28;20043;-82
2022/02/19 13:02:00;;;;;;;3.63;1.00;;;16.80;33.30;;;;;;6178986;28;20051;-81
2022/02/19 13:05:07;;;;;;;5.45;0.88;;;16.20;33.80;;;;;;6179396;28;20053;-83
2022/02/19 13:08:10;;;;;;;2.53;0.85;;;15.90;34.80;;;;;;6188247;28;20517;-80
2022/02/19 13:11:13;;;;;;;1.48;0.50;;;15.80;35.80;;;;;;6199598;28;20153;-83
2022/02/19 13:14:15;;;;;;;2.60;0.70;;;16.00;35.60;;;;;;6204142;28;20046;-81
2022/02/19 13:17:17;;;;;;;1.50;0.30;;;16.10;35.40;;;;;;6203653;28;20658;-82
2022/02/19 13:20:21;;;;;;;10.02;1.27;;;16.30;34.70;;;;;;6203459;28;20129;-82
2022/02/19 13:23:30;;;;;;;3.13;1.40;;;16.20;35.60;;;;;;6203085;28;20062;-80
2022/02/19 13:26:33;;;;;;;3.42;0.68;;;16.40;36.20;;;;;;6203201;28;20508;-82
2022/02/19 13:29:35;;;;;;;45.83;24.85;;;16.50;34.90;;;;;;6203909;28;20061;-82
2022/02/19 13:32:38;;;;;;;10.98;3.47;;;16.50;33.80;;;;;;6207012;28;20061;-82
2022/02/19 13:35:42;;;;;;;28.65;19.65;;;16.20;34.10;;;;;;6201977;28;20050;-81
2022/02/19 13:38:44;;;;;;;71.72;31.15;;;16.00;35.40;;;;;;6192984;28;20049;-82
2022/02/19 13:41:52;;;;;;;10.80;2.45;;;15.90;35.50;;;;;;6219469;22;20046;-83
2022/02/19 13:44:54;;;;;;;4.00;0.75;;;16.00;36.10;;;;;;6190156;28;20121;-82
2022/02/19 13:47:58;;;;;;;5.15;2.30;;;15.80;35.60;;;;;;6189690;28;20055;-81
2022/02/19 13:51:01;;;;;;;6.63;1.77;;;15.60;36.10;;;;;;6189910;28;20047;-83
2022/02/19 13:54:20;;;;;;;4.57;0.70;;;15.50;36.80;;;;;;6189835;28;20043;-83
2022/02/19 13:57:24;;;;;;;2.72;1.17;;;15.50;37.50;;;;;;6190016;28;20043;-82
2022/02/19 14:00:32;;;;;;;9.00;1.05;;;15.70;37.00;;;;;;6189709;28;20062;-84
2022/02/19 14:03:42;;;;;;;2.97;0.60;;;15.90;36.70;;;;;;6197051;28;20053;-84
2022/02/19 14:06:47;;;;;;;5.80;4.13;;;16.10;36.20;;;;;;6192619;28;20102;-83
2022/02/19 14:10:07;;;;;;;2.35;0.70;;;16.10;35.90;;;;;;6208439;28;20042;-84
2022/02/19 14:13:10;;;;;;;5.40;0.80;;;16.20;35.50;;;;;;6214999;28;20050;-84
2022/02/19 14:16:18;;;;;;;4.13;1.00;;;16.30;35.80;;;;;;6213102;28;20050;-82
2022/02/19 14:19:19;;;;;;;;;;;16.40;34.90;;;;;;6214830;28;20050;-82
2022/02/19 14:22:22;;;;;;;4.65;0.82;;;16.50;34.80;;;;;;6214788;28;19922;-82
2022/02/19 14:25:28;;;;;;;6.47;0.75;;;16.50;34.80;;;;;;6214411;28;20070;-83
2022/02/19 14:28:32;;;;;;;2.90;0.82;;;16.30;35.00;;;;;;6216329;28;20114;-83
2022/02/19 14:31:36;;;;;;;4.63;0.80;;;16.30;35.80;;;;;;6217441;28;20046;-82
2022/02/19 14:34:39;;;;;;;2.38;0.68;;;16.10;34.90;;;;;;6214793;28;20039;-83
2022/02/19 14:37:42;;;;;;;25.20;12.95;;;16.00;35.00;;;;;;6210545;28;20105;-83
2022/02/19 14:40:44;;;;;;;23.58;10.77;;;15.80;34.70;;;;;;6208657;28;20060;-82
2022/02/19 14:43:46;;;;;;;4.00;0.68;;;15.30;35.90;;;;;;6213579;28;20066;-83
2022/02/19 14:46:48;;;;;;;4.57;1.50;;;14.90;36.40;;;;;;6215825;28;20109;-83
2022/02/19 14:49:50;;;;;;;3.50;0.63;;;14.40;37.30;;;;;;6218497;28;20046;-82
2022/02/19 14:52:54;;;;;;;3.92;1.45;;;14.00;38.20;;;;;;6217589;28;20500;-83
2022/02/19 14:55:56;;;;;;;6.55;1.15;;;13.70;39.20;;;;;;6218948;28;20046;-82
2022/02/19 14:58:58;;;;;;;4.22;0.85;;;13.30;39.80;;;;;;6217606;28;20129;-81
2022/02/19 15:02:00;;;;;;;6.70;0.70;;;13.30;40.60;;;;;;6213934;28;20426;-81
2022/02/19 15:05:02;;;;;;;3.58;0.80;;;13.30;40.70;;;;;;6215062;28;20082;-83
2022/02/19 15:08:08;;;;;;;2.92;0.82;;;13.30;40.90;;;;;;6209702;28;20466;-83
2022/02/19 15:11:09;;;;;;;3.75;0.75;;;13.20;40.70;;;;;;6212417;28;20463;-84
2022/02/19 15:14:11;;;;;;;1.80;0.35;;;13.00;40.60;;;;;;6216795;28;20046;-83
2022/02/19 15:17:14;;;;;;;2.35;0.50;;;12.90;41.30;;;;;;6217296;28;20140;-82
2022/02/19 15:20:16;;;;;;;2.72;0.60;;;12.70;41.60;;;;;;6215753;28;20663;-83
2022/02/19 15:23:19;;;;;;;1.65;0.50;;;12.60;42.00;;;;;;6215976;28;20046;-83
2022/02/19 15:26:21;;;;;;;2.83;0.43;;;12.60;42.50;;;;;;6214806;28;20050;-83
2022/02/19 15:29:24;;;;;;;4.90;0.98;;;12.50;42.60;;;;;;6212062;28;20077;-82
2022/02/19 15:32:26;;;;;;;4.30;1.08;;;12.40;43.10;;;;;;6204264;28;20050;-82
2022/02/19 15:35:27;;;;;;;8.23;0.90;;;12.30;43.70;;;;;;6188551;28;20090;-83
2022/02/19 15:38:32;;;;;;;2.30;0.70;;;12.20;44.00;;;;;;6194627;28;20081;-83
2022/02/19 15:41:34;;;;;;;13.23;6.93;;;12.10;44.20;;;;;;6198867;28;20491;-82
2022/02/19 15:44:36;;;;;;;9.43;2.90;;;12.10;44.80;;;;;;6192280;28;20138;-86
2022/02/19 15:47:37;;;;;;;2.55;0.70;;;12.10;44.80;;;;;;6190829;28;20127;-82
2022/02/19 15:50:39;;;;;;;1.58;0.60;;;12.00;44.70;;;;;;6183392;28;20070;-83
2022/02/19 15:53:42;;;;;;;6.55;1.77;;;11.90;45.30;;;;;;6184319;28;20059;-83
2022/02/19 15:56:44;;;;;;;4.38;0.85;;;11.80;45.20;;;;;;6184103;28;20053;-83
2022/02/19 15:59:46;;;;;;;2.97;0.70;;;11.70;45.60;;;;;;6181764;28;20055;-82
2022/02/19 16:02:49;;;;;;;7.80;1.40;;;11.60;46.10;;;;;;6183841;28;20061;-84
2022/02/19 16:05:50;;;;;;;7.88;0.75;;;11.50;46.00;;;;;;6185855;28;20046;-82